Portada
METAR-TAF:

METAR-TAF

Aeropuertos :

Barcelona, Venezuela

Aeropuerto Internacional General José Antonio Anzoátegui

latitud: 10-07N, longitud: 064-41W, altitud: 7 m

METAR: falta

Hora: 01:54 (05:54 UTC)

Pronóstico

El informe se hizo hace 1 hora y 54 minutos, a las 04:00 UTC
Pronóstico válido del 17 a las 06 UTC al 18 a las 06 UTC
Viento 10 kt del norte
Visibilidad 10 km o más
Nubes dispersas a una altura de 1600 ft
Temporalmente
del 17 a las 06 UTC al 17 a las 12 UTC
Viento kt del norte
Visibilidad 10 km o más
sin nubes por debajo de 1500 m y sin presencia de cumulonimbus.

TAF: SVBC 170400Z 1706/1806 36010KT 9999 SCT016 TX33/19Z TN26/08Z TEMPO 1706/1712 00000KT CAVOK

Observaciones y pronósticos meteorológicos de más de 4000 aeropuertos (mensajes METAR y TAF).

Los puntos amarillos y rojos representan las estaciones disponibles.

Ponga el ratón en el punto deseado para ver el nombre de la estación.

Haga clic para ver las observaciones y los pronósticos meteorológicos.

Para cambiar el mapa : haga clic en los botones verdes con una cruz de color negro para hacer un zoom, en el botón verde con un guión para alejar o en las flechas verdes para mapas adyacentes.


METAR-TAF: